Time;durP1;ratioP1;P1;durP2;ratioP2;P2;SDS_P1;SDS_P2;PMS_P1;PMS_P2;Temp;Humidity;BMP_temperature;BMP_pressure;BME280_temperature;BME280_humidity;BME280_pressure;Samples;Min_cycle;Max_cycle;Signal;HPM_P1;HPM_P2
2023/11/19 13:34:07;;;;;;;;;;;14.80;99.90;;;;;;7420599;19;19908;-75
2023/11/19 13:36:39;;;;;;;28.77;4.43;;;15.00;99.90;;;;;;7441312;19;20427;-75
2023/11/19 13:39:07;;;;;;;29.75;4.60;;;15.50;99.90;;;;;;7418245;19;20007;-75
2023/11/19 13:41:38;;;;;;;23.90;3.55;;;15.60;99.90;;;;;;7419310;19;20031;-76
2023/11/19 13:44:08;;;;;;;26.33;4.30;;;15.90;99.90;;;;;;7420655;19;20006;-75
2023/11/19 13:46:37;;;;;;;21.80;3.55;;;16.00;99.90;;;;;;7419654;19;20006;-76
2023/11/19 13:49:09;;;;;;;31.77;3.45;;;16.00;99.90;;;;;;7420582;19;20006;-75
2023/11/19 13:51:37;;;;;;;;;;;16.10;99.90;;;;;;7441610;19;20260;-74
2023/11/19 13:54:06;;;;;;;29.60;3.88;;;16.20;99.90;;;;;;7421815;19;19914;-75
2023/11/19 13:56:34;;;;;;;38.10;4.35;;;16.40;99.90;;;;;;7419658;19;20358;-75
2023/11/19 13:59:03;;;;;;;37.50;4.43;;;16.40;99.90;;;;;;7420222;19;20023;-75
2023/11/19 14:01:32;;;;;;;29.15;4.30;;;16.30;99.90;;;;;;7417123;19;20006;-75
2023/11/19 14:04:01;;;;;;;24.52;3.20;;;16.40;99.90;;;;;;7419537;19;20010;-75
2023/11/19 14:06:32;;;;;;;34.13;4.15;;;16.30;99.90;;;;;;7440738;19;20014;-75
2023/11/19 14:09:01;;;;;;;37.92;4.28;;;16.30;99.90;;;;;;7418471;19;20014;-75
2023/11/19 14:11:32;;;;;;;21.15;3.92;;;16.20;99.90;;;;;;7419019;19;20006;-76
2023/11/19 14:14:01;;;;;;;28.50;4.40;;;16.30;99.90;;;;;;7421626;19;20038;-75
2023/11/19 14:16:34;;;;;;;32.97;3.75;;;16.20;99.90;;;;;;7429587;19;20020;-77
2023/11/19 14:19:03;;;;;;;32.08;4.03;;;16.30;99.90;;;;;;7427597;19;20272;-77
2023/11/19 14:21:34;;;;;;;34.22;3.53;;;16.40;99.90;;;;;;7446272;19;20036;-77
2023/11/19 14:24:03;;;;;;;32.80;3.92;;;16.40;99.90;;;;;;7420876;19;20224;-77
2023/11/19 14:26:31;;;;;;;25.15;4.20;;;16.40;99.90;;;;;;7418845;19;20017;-77
2023/11/19 14:29:00;;;;;;;30.35;3.78;;;16.50;99.90;;;;;;7417994;19;20026;-77
2023/11/19 14:31:32;;;;;;;19.77;3.70;;;16.60;99.90;;;;;;7419149;19;20019;-77
2023/11/19 14:34:03;;;;;;;26.98;4.03;;;16.70;99.90;;;;;;7415855;19;20002;-77
2023/11/19 14:36:35;;;;;;;38.47;4.18;;;16.60;99.90;;;;;;7440856;19;20034;-77
2023/11/19 14:39:03;;;;;;;;;;;16.60;99.90;;;;;;7418090;19;20010;-77
2023/11/19 14:41:32;;;;;;;29.52;3.83;;;16.50;99.90;;;;;;7417398;19;19914;-77
2023/11/19 14:44:01;;;;;;;30.60;4.15;;;16.60;99.90;;;;;;7403275;19;20015;-77
2023/11/19 14:46:29;;;;;;;34.33;3.95;;;16.60;99.90;;;;;;7389166;19;20007;-77
2023/11/19 14:49:03;;;;;;;22.05;3.42;;;16.70;99.90;;;;;;7388895;19;20374;-79
2023/11/19 14:51:35;;;;;;;31.15;3.75;;;16.70;99.90;;;;;;7410048;19;20451;-77
2023/11/19 14:54:03;;;;;;;36.28;3.78;;;16.40;99.90;;;;;;7386672;19;20299;-77
2023/11/19 14:56:32;;;;;;;30.98;4.03;;;16.50;99.90;;;;;;7387957;19;20077;-77
2023/11/19 14:59:01;;;;;;;20.42;4.38;;;16.50;99.90;;;;;;7388581;19;20007;-76
2023/11/19 15:01:30;;;;;;;21.95;4.00;;;16.50;99.90;;;;;;7387441;19;20369;-76
2023/11/19 15:03:59;;;;;;;17.17;3.42;;;16.40;99.90;;;;;;7388335;19;20082;-77
2023/11/19 15:06:30;;;;;;;31.67;3.85;;;16.50;99.90;;;;;;7409786;19;20018;-77
2023/11/19 15:09:01;;;;;;;36.95;4.57;;;16.50;99.90;;;;;;7387439;19;20014;-77
2023/11/19 15:11:30;;;;;;;;;;;16.50;99.90;;;;;;7388176;19;20003;-77
2023/11/19 15:13:59;;;;;;;26.58;4.28;;;16.60;99.90;;;;;;7387195;19;19978;-77
2023/11/19 15:16:31;;;;;;;24.60;3.72;;;16.70;99.90;;;;;;7388486;19;20003;-77
2023/11/19 15:19:03;;;;;;;32.35;4.65;;;16.70;99.90;;;;;;7387699;19;20362;-77
2023/11/19 15:21:32;;;;;;;32.85;4.43;;;16.70;99.90;;;;;;7408285;19;20021;-77
2023/11/19 15:24:07;;;;;;;33.90;3.78;;;16.50;99.90;;;;;;7387341;19;20003;-77
2023/11/19 15:26:37;;;;;;;29.92;4.45;;;16.40;99.90;;;;;;7386759;19;20370;-77
2023/11/19 15:29:06;;;;;;;32.95;3.90;;;16.20;99.90;;;;;;7386193;19;20593;-77
2023/11/19 15:31:35;;;;;;;28.00;4.07;;;16.30;99.90;;;;;;7387043;19;20378;-76
2023/11/19 15:34:03;;;;;;;21.05;3.97;;;16.00;99.90;;;;;;7386054;19;20073;-77
2023/11/19 15:36:35;;;;;;;25.98;4.13;;;16.10;99.90;;;;;;7409437;19;20006;-77
2023/11/19 15:39:07;;;;;;;35.15;4.47;;;16.20;99.90;;;;;;7387094;19;20031;-77
2023/11/19 15:41:35;;;;;;;28.98;4.68;;;16.30;99.90;;;;;;7386727;19;20426;-76
2023/11/19 15:44:05;;;;;;;34.10;4.45;;;16.30;99.90;;;;;;7387189;19;20014;-76
2023/11/19 15:46:34;;;;;;;23.50;4.30;;;16.30;99.90;;;;;;7386921;19;20015;-76
2023/11/19 15:49:02;;;;;;;27.75;4.38;;;16.20;99.90;;;;;;7386599;19;20279;-77
2023/11/19 15:51:31;;;;;;;31.55;4.97;;;16.10;99.90;;;;;;7407596;19;20021;-76
2023/11/19 15:54:00;;;;;;;26.40;4.60;;;16.20;99.90;;;;;;7384204;19;20007;-77
2023/11/19 15:56:31;;;;;;;26.95;3.67;;;15.90;99.90;;;;;;7382877;19;20035;-77
2023/11/19 15:59:00;;;;;;;31.63;4.22;;;15.90;99.90;;;;;;7386123;19;20413;-77
2023/11/19 16:01:30;;;;;;;25.85;4.72;;;16.10;99.90;;;;;;7386106;19;20018;-77
2023/11/19 16:03:59;;;;;;;19.17;4.35;;;16.20;99.90;;;;;;7386271;19;20017;-76
2023/11/19 16:06:27;;;;;;;31.33;3.72;;;16.10;99.90;;;;;;7407075;19;20007;-76
2023/11/19 16:08:58;;;;;;;27.20;3.97;;;16.10;99.90;;;;;;7384773;19;20011;-77
2023/11/19 16:11:27;;;;;;;24.10;4.53;;;16.00;99.90;;;;;;7384201;19;20259;-76
2023/11/19 16:13:59;;;;;;;28.10;4.88;;;16.10;99.90;;;;;;7385542;19;20010;-77
2023/11/19 16:16:28;;;;;;;28.75;4.40;;;16.00;99.90;;;;;;7384902;19;20678;-76
2023/11/19 16:18:58;;;;;;;26.27;4.32;;;16.10;99.90;;;;;;7385327;19;20017;-76
2023/11/19 16:21:27;;;;;;;26.67;4.28;;;15.90;99.90;;;;;;7405133;19;20222;-76
2023/11/19 16:23:56;;;;;;;26.83;4.47;;;16.00;99.90;;;;;;7384770;19;20027;-78
2023/11/19 16:26:26;;;;;;;27.48;4.05;;;16.00;99.90;;;;;;7384747;19;20272;-77
2023/11/19 16:28:56;;;;;;;24.15;3.95;;;16.00;99.90;;;;;;7383635;19;20019;-77
2023/11/19 16:31:28;;;;;;;37.17;4.40;;;16.00;99.90;;;;;;7388747;19;20006;-77
2023/11/19 16:33:56;;;;;;;33.72;4.13;;;15.90;99.90;;;;;;7389654;19;20354;-76
2023/11/19 16:36:26;;;;;;;22.38;3.83;;;16.00;99.90;;;;;;7407640;19;20031;-77
2023/11/19 16:38:55;;;;;;;35.03;5.03;;;16.10;99.90;;;;;;7384495;19;20007;-76
2023/11/19 16:41:26;;;;;;;23.98;4.15;;;16.10;99.90;;;;;;7384302;19;20007;-76
2023/11/19 16:43:59;;;;;;;28.13;4.03;;;15.90;99.90;;;;;;7385120;19;20052;-76
2023/11/19 16:46:32;;;;;;;28.30;3.92;;;15.90;99.90;;;;;;7385321;19;20027;-76
2023/11/19 16:49:01;;;;;;;32.28;4.75;;;15.70;99.90;;;;;;7383572;19;20015;-77
2023/11/19 16:51:29;;;;;;;29.88;4.57;;;15.80;99.90;;;;;;7406346;19;20230;-77
2023/11/19 16:53:58;;;;;;;29.58;4.00;;;15.70;99.90;;;;;;7383083;19;20010;-77
2023/11/19 16:56:27;;;;;;;29.52;4.10;;;15.80;99.90;;;;;;7382743;19;20089;-77
2023/11/19 16:58:56;;;;;;;40.75;5.63;;;15.90;99.90;;;;;;7384504;19;20011;-77
2023/11/19 17:01:24;;;;;;;35.53;5.15;;;15.90;99.90;;;;;;7384107;19;20011;-77
2023/11/19 17:03:57;;;;;;;28.65;6.82;;;15.90;99.90;;;;;;7383741;19;20089;-77
2023/11/19 17:06:26;;;;;;;43.95;5.30;;;15.90;99.90;;;;;;7405292;19;20032;-76
2023/11/19 17:08:55;;;;;;;35.75;5.13;;;15.90;99.90;;;;;;7383374;19;20024;-75
2023/11/19 17:11:24;;;;;;;20.85;4.53;;;15.90;99.90;;;;;;7382806;19;20276;-76
2023/11/19 17:13:53;;;;;;;27.38;4.97;;;15.90;99.90;;;;;;7385681;19;20007;-76
2023/11/19 17:16:22;;;;;;;35.30;5.85;;;15.90;99.90;;;;;;7384298;19;20014;-77
2023/11/19 17:18:50;;;;;;;46.95;7.85;;;15.90;99.90;;;;;;7384472;19;20022;-75
2023/11/19 17:21:22;;;;;;;40.38;6.28;;;15.90;99.90;;;;;;7403910;19;20336;-75
2023/11/19 17:23:52;;;;;;;36.72;5.00;;;15.90;99.90;;;;;;7384904;19;20017;-76
2023/11/19 17:26:21;;;;;;;43.05;5.50;;;16.00;99.90;;;;;;7385167;19;20082;-77
2023/11/19 17:28:50;;;;;;;38.42;4.72;;;15.90;99.90;;;;;;7382882;19;20016;-76
2023/11/19 17:31:19;;;;;;;38.38;7.70;;;15.90;99.90;;;;;;7381359;19;20014;-76
2023/11/19 17:33:48;;;;;;;32.33;5.20;;;15.90;99.90;;;;;;7381285;19;20032;-76
2023/11/19 17:36:18;;;;;;;39.75;5.55;;;15.70;99.90;;;;;;7405020;19;20014;-77
2023/11/19 17:38:51;;;;;;;31.75;5.63;;;15.80;99.90;;;;;;7382999;19;20003;-76
2023/11/19 17:41:19;;;;;;;35.15;5.28;;;15.80;99.90;;;;;;7382231;19;20007;-76
2023/11/19 17:43:48;;;;;;;28.13;5.43;;;15.70;99.90;;;;;;7383923;19;20010;-75
2023/11/19 17:46:17;;;;;;;40.50;5.45;;;15.80;99.90;;;;;;7383741;19;20011;-76
2023/11/19 17:48:46;;;;;;;38.67;6.07;;;15.80;99.90;;;;;;7383331;19;20033;-76
2023/11/19 17:51:16;;;;;;;34.05;5.55;;;15.80;99.90;;;;;;7405022;19;20014;-76
2023/11/19 17:53:45;;;;;;;32.47;5.53;;;15.80;99.90;;;;;;7382047;19;20007;-76
2023/11/19 17:56:21;;;;;;;38.28;6.28;;;15.80;99.90;;;;;;7383947;19;20016;-76
2023/11/19 17:58:50;;;;;;;38.17;5.82;;;15.80;99.90;;;;;;7383290;19;20007;-78
2023/11/19 18:01:19;;;;;;;49.45;6.65;;;15.80;99.90;;;;;;7383202;19;20024;-76
2023/11/19 18:03:48;;;;;;;32.03;6.32;;;15.80;99.90;;;;;;7383881;19;20046;-76
2023/11/19 18:06:20;;;;;;;27.27;5.65;;;15.80;99.90;;;;;;7405189;19;20011;-75
2023/11/19 18:08:51;;;;;;;38.25;5.65;;;15.70;99.90;;;;;;7382531;19;20359;-76
2023/11/19 18:11:25;;;;;;;;;;;15.50;99.90;;;;;;7382547;19;19911;-76
2023/11/19 18:13:54;;;;;;;;;;;15.60;99.90;;;;;;7382260;19;20237;-76
2023/11/19 18:16:23;;;;;;;;;;;15.60;99.90;;;;;;7382426;19;19991;-76
2023/11/19 18:18:52;;;;;;;;;;;15.60;99.90;;;;;;7385195;19;19938;-76
2023/11/19 18:21:20;;;;;;;;;;;15.60;99.90;;;;;;7410444;19;20230;-76
2023/11/19 18:23:49;;;;;;;;;;;15.60;99.90;;;;;;7388546;19;20220;-76
2023/11/19 18:26:18;;;;;;;;;;;15.60;99.90;;;;;;7390693;19;19980;-77
2023/11/19 18:28:49;;;;;;;;;;;15.60;99.90;;;;;;7389494;19;19937;-77
2023/11/19 18:31:18;;;;;;;;;;;15.60;99.90;;;;;;7389190;19;20226;-76
2023/11/19 18:33:46;;;;;;;;;;;15.70;99.90;;;;;;7391716;19;19921;-76
2023/11/19 18:36:16;;;;;;;;;;;15.70;99.90;;;;;;7419863;19;19910;-76
2023/11/19 18:38:44;;;;;;;;;;;15.80;99.90;;;;;;7397420;19;19962;-76
2023/11/19 18:41:14;;;;;;;;;;;15.70;99.90;;;;;;7397807;19;19914;-76
2023/11/19 18:43:43;;;;;;;;;;;15.80;99.90;;;;;;7401050;19;20002;-77
2023/11/19 18:46:14;;;;;;;;;;;15.80;99.90;;;;;;7394263;19;19986;-76
2023/11/19 18:48:43;;;;;;;;;;;15.70;99.90;;;;;;7412058;19;19911;-77
2023/11/19 18:51:14;;;;;;;;;;;15.70;99.90;;;;;;7391147;19;19915;-78
2023/11/19 18:53:44;;;;;;;30.83;7.70;;;15.70;99.90;;;;;;7387438;19;19931;-77
2023/11/19 18:56:13;;;;;;;32.92;5.72;;;15.80;99.90;;;;;;7388498;19;20425;-76
2023/11/19 18:58:42;;;;;;;36.17;5.50;;;15.70;99.90;;;;;;7389522;19;20036;-77
2023/11/19 19:01:15;;;;;;;27.35;6.03;;;15.70;99.90;;;;;;7389035;19;20002;-76
2023/11/19 19:03:44;;;;;;;40.42;6.57;;;15.70;99.90;;;;;;7400527;19;20390;-77
2023/11/19 19:06:13;;;;;;;33.97;6.22;;;15.60;99.90;;;;;;7410585;19;20035;-76
2023/11/19 19:08:43;;;;;;;32.88;5.95;;;15.60;99.90;;;;;;7387598;19;20006;-76
2023/11/19 19:11:12;;;;;;;33.30;5.80;;;15.50;99.90;;;;;;7388500;19;20032;-77
2023/11/19 19:13:42;;;;;;;31.02;5.63;;;15.60;99.90;;;;;;7387580;19;20263;-77
2023/11/19 19:16:14;;;;;;;26.08;5.65;;;15.60;99.90;;;;;;7389386;19;20017;-77
2023/11/19 19:18:45;;;;;;;34.53;6.40;;;15.60;99.90;;;;;;7410400;19;20010;-77
2023/11/19 19:21:14;;;;;;;42.33;5.90;;;15.70;99.90;;;;;;7387954;19;20343;-77
2023/11/19 19:23:42;;;;;;;41.10;5.95;;;15.70;99.90;;;;;;7386991;19;20090;-77
2023/11/19 19:26:11;;;;;;;23.73;5.97;;;15.70;99.90;;;;;;7388412;19;20018;-77
2023/11/19 19:28:52;;;;;;;;;;;;;;;;;;;;;
2023/11/19 19:31:24;;;;;;;41.45;12.52;;;15.60;99.90;;;;;;7386367;19;20003;-78
2023/11/19 19:33:57;;;;;;;41.95;7.32;;;15.70;99.90;;;;;;7388472;19;20003;-77
2023/11/19 19:36:27;;;;;;;39.95;6.63;;;15.70;99.90;;;;;;7410037;19;20010;-75
2023/11/19 19:38:58;;;;;;;49.22;11.07;;;15.70;99.90;;;;;;7387684;19;20393;-77
2023/11/19 19:41:28;;;;;;;41.90;5.43;;;15.60;99.90;;;;;;7387453;19;20014;-76
2023/11/19 19:43:59;;;;;;;37.55;5.25;;;15.50;99.90;;;;;;7388629;19;20272;-76
2023/11/19 19:46:30;;;;;;;25.92;5.05;;;15.50;99.90;;;;;;7386652;19;20396;-76
2023/11/19 19:48:59;;;;;;;39.42;6.00;;;15.50;99.90;;;;;;7387159;19;20011;-77
2023/11/19 19:51:29;;;;;;;35.63;5.95;;;15.50;99.90;;;;;;7408533;19;20028;-76
2023/11/19 19:53:57;;;;;;;35.28;6.55;;;15.40;99.90;;;;;;7385515;19;20246;-75
2023/11/19 19:56:26;;;;;;;24.52;6.65;;;15.40;99.90;;;;;;7386525;19;20052;-75
2023/11/19 19:58:55;;;;;;;30.25;6.40;;;15.40;99.90;;;;;;7386111;19;20010;-75
2023/11/19 20:01:23;;;;;;;37.00;5.35;;;15.40;99.90;;;;;;7386503;19;20003;-76
2023/11/19 20:03:56;;;;;;;30.63;4.32;;;15.40;99.90;;;;;;7386547;19;20414;-75
2023/11/19 20:06:26;;;;;;;46.53;6.00;;;15.30;99.90;;;;;;7408910;19;20007;-75
2023/11/19 20:08:55;;;;;;;45.72;6.47;;;15.30;99.90;;;;;;7386829;19;20378;-75
2023/11/19 20:11:26;;;;;;;30.38;5.55;;;15.00;99.90;;;;;;7385712;19;20036;-76
2023/11/19 20:13:55;;;;;;;32.95;5.22;;;15.00;99.90;;;;;;7385761;19;20044;-77
2023/11/19 20:16:23;;;;;;;30.23;5.10;;;15.10;99.90;;;;;;7387353;19;20082;-75
2023/11/19 20:18:55;;;;;;;38.65;5.63;;;15.30;99.90;;;;;;7387043;19;20023;-74
2023/11/19 20:21:24;;;;;;;39.75;5.57;;;15.20;99.90;;;;;;7407703;19;20317;-76
2023/11/19 20:23:53;;;;;;;31.77;4.95;;;15.20;99.90;;;;;;7385392;19;20010;-76
2023/11/19 20:26:22;;;;;;;33.63;5.45;;;15.20;99.90;;;;;;7386236;19;20014;-75
2023/11/19 20:28:51;;;;;;;45.50;6.53;;;15.30;99.90;;;;;;7385415;19;20017;-75
2023/11/19 20:31:20;;;;;;;17.77;4.50;;;15.20;99.90;;;;;;7389141;19;20070;-75
2023/11/19 20:33:48;;;;;;;34.05;5.50;;;15.20;99.90;;;;;;7384372;19;20014;-75
2023/11/19 20:36:20;;;;;;;40.55;5.47;;;15.30;99.90;;;;;;7408553;19;20023;-75
2023/11/19 20:38:50;;;;;;;29.88;5.22;;;15.20;99.90;;;;;;7385228;19;20011;-75
2023/11/19 20:41:21;;;;;;;32.10;4.75;;;15.20;99.90;;;;;;7383087;19;20006;-75
2023/11/19 20:43:49;;;;;;;39.55;4.85;;;15.20;99.90;;;;;;7385137;19;20021;-75
2023/11/19 20:46:18;;;;;;;40.35;6.47;;;15.10;99.90;;;;;;7385186;19;20011;-74
2023/11/19 20:48:51;;;;;;;37.17;5.70;;;15.00;99.90;;;;;;7385222;19;20240;-75
2023/11/19 20:51:22;;;;;;;45.38;5.40;;;15.10;99.90;;;;;;7413028;19;20035;-74
2023/11/19 20:53:51;;;;;;;37.85;5.88;;;15.10;99.90;;;;;;7391969;19;20019;-75
2023/11/19 20:56:21;;;;;;;43.53;5.68;;;15.10;99.90;;;;;;7390993;19;20007;-75
2023/11/19 20:58:53;;;;;;;32.67;4.70;;;15.00;99.90;;;;;;7391577;19;20010;-75
2023/11/19 21:01:22;;;;;;;37.22;5.45;;;15.10;99.90;;;;;;7387663;19;20006;-75
2023/11/19 21:03:51;;;;;;;35.75;4.75;;;15.10;99.90;;;;;;7385284;19;20022;-74
2023/11/19 21:06:23;;;;;;;37.65;5.35;;;15.10;99.90;;;;;;7405830;19;20029;-74
2023/11/19 21:08:52;;;;;;;34.78;4.43;;;15.10;99.90;;;;;;7384827;19;20019;-74
2023/11/19 21:11:20;;;;;;;38.30;5.72;;;15.10;99.90;;;;;;7384036;19;20003;-74
2023/11/19 21:13:50;;;;;;;39.72;5.88;;;15.10;99.90;;;;;;7383123;19;20063;-74
2023/11/19 21:16:22;;;;;;;41.53;5.45;;;14.90;99.90;;;;;;7384010;19;20246;-75
2023/11/19 21:18:50;;;;;;;27.23;4.30;;;14.90;99.90;;;;;;7384308;19;20006;-75
2023/11/19 21:21:22;;;;;;;40.00;4.82;;;14.90;99.90;;;;;;7404947;19;20082;-75
2023/11/19 21:23:51;;;;;;;37.63;5.03;;;15.00;99.90;;;;;;7383791;19;20024;-74
2023/11/19 21:26:19;;;;;;;36.63;4.90;;;14.90;99.90;;;;;;7382043;19;20011;-75
2023/11/19 21:28:48;;;;;;;47.92;5.28;;;15.00;99.90;;;;;;7383797;19;20006;-75
2023/11/19 21:31:17;;;;;;;51.00;5.25;;;14.90;99.90;;;;;;7384730;19;20086;-75
2023/11/19 21:33:46;;;;;;;40.30;5.15;;;14.90;99.90;;;;;;7381475;19;20010;-75
2023/11/19 21:36:15;;;;;;;27.52;4.93;;;14.90;99.90;;;;;;7403723;19;20012;-75
2023/11/19 21:38:47;;;;;;;30.05;5.18;;;14.90;99.90;;;;;;7383188;19;20011;-75
2023/11/19 21:41:16;;;;;;;48.75;5.90;;;14.90;99.90;;;;;;7384253;19;20003;-75
2023/11/19 21:43:45;;;;;;;30.70;5.53;;;14.90;99.90;;;;;;7383301;19;20002;-75
2023/11/19 21:46:14;;;;;;;31.85;5.05;;;14.90;99.90;;;;;;7384712;19;20019;-75
2023/11/19 21:48:45;;;;;;;25.58;4.63;;;14.90;99.90;;;;;;7405094;19;20018;-76
2023/11/19 21:51:19;;;;;;;38.43;5.60;;;14.90;99.90;;;;;;7383652;19;20015;-75
2023/11/19 21:53:50;;;;;;;28.92;4.95;;;14.80;99.90;;;;;;7384410;19;20066;-75
2023/11/19 21:56:21;;;;;;;30.35;5.07;;;14.90;99.90;;;;;;7390218;19;20011;-75
2023/11/19 21:58:50;;;;;;;29.60;5.00;;;14.80;99.90;;;;;;7390543;19;20319;-74
2023/11/19 22:01:18;;;;;;;29.80;4.70;;;14.80;99.90;;;;;;7390666;19;20014;-75
2023/11/19 22:03:47;;;;;;;28.92;4.25;;;14.80;99.90;;;;;;7389883;19;20022;-75
2023/11/19 22:06:19;;;;;;;34.60;4.25;;;14.70;99.90;;;;;;7411957;19;20023;-75
2023/11/19 22:08:50;;;;;;;53.17;5.80;;;14.70;99.90;;;;;;7389911;19;20247;-74
2023/11/19 22:11:19;;;;;;;35.88;5.05;;;14.70;99.90;;;;;;7390720;19;20024;-76
2023/11/19 22:13:47;;;;;;;30.80;5.13;;;14.70;99.90;;;;;;7390308;19;20009;-77
2023/11/19 22:16:16;;;;;;;26.38;4.38;;;14.60;99.90;;;;;;7385862;19;20363;-77
2023/11/19 22:18:45;;;;;;;31.38;4.22;;;14.70;99.90;;;;;;7385629;19;20074;-76
2023/11/19 22:21:14;;;;;;;49.88;5.68;;;14.70;99.90;;;;;;7405619;19;20379;-76
2023/11/19 22:23:42;;;;;;;42.85;5.13;;;14.60;99.90;;;;;;7383250;19;20006;-75
2023/11/19 22:26:14;;;;;;;46.35;6.38;;;14.50;99.90;;;;;;7384081;19;20006;-75
2023/11/19 22:28:42;;;;;;;;;;;14.60;99.90;;;;;;7384578;19;20050;-76
2023/11/19 22:31:12;;;;;;;42.58;5.22;;;14.60;99.90;;;;;;7383895;19;19991;-76
2023/11/19 22:33:41;;;;;;;32.55;5.35;;;14.60;99.90;;;;;;7402799;19;20027;-76
2023/11/19 22:36:10;;;;;;;40.38;6.10;;;14.60;99.90;;;;;;7380447;19;20106;-76
2023/11/19 22:38:39;;;;;;;41.60;4.85;;;14.60;99.90;;;;;;7382579;19;20227;-76
2023/11/19 22:41:07;;;;;;;28.08;4.93;;;14.60;99.90;;;;;;7382625;19;20062;-76
2023/11/19 22:43:40;;;;;;;51.55;5.20;;;14.50;99.90;;;;;;7382977;19;20003;-76
2023/11/19 22:46:12;;;;;;;29.98;4.43;;;14.50;99.90;;;;;;7383063;19;20006;-76
2023/11/19 22:48:42;;;;;;;37.28;4.72;;;14.40;99.90;;;;;;7404940;19;20379;-76
2023/11/19 22:51:11;;;;;;;52.22;5.30;;;14.50;99.90;;;;;;7382751;19;20343;-76
2023/11/19 22:53:39;;;;;;;38.10;5.22;;;14.50;99.90;;;;;;7382503;19;19999;-76
2023/11/19 22:56:10;;;;;;;34.45;5.28;;;14.50;99.90;;;;;;7382374;19;20018;-75
2023/11/19 22:58:42;;;;;;;39.83;5.53;;;14.40;99.90;;;;;;7382723;19;20232;-75
2023/11/19 23:01:11;;;;;;;39.80;6.85;;;14.50;99.90;;;;;;7382091;19;20488;-75
2023/11/19 23:03:40;;;;;;;22.25;4.63;;;14.50;99.90;;;;;;7404416;19;20358;-75
2023/11/19 23:06:09;;;;;;;38.42;5.28;;;14.50;99.90;;;;;;7382529;19;20019;-75
2023/11/19 23:08:38;;;;;;;38.67;5.15;;;14.50;99.90;;;;;;7385051;19;20081;-75
2023/11/19 23:11:08;;;;;;;26.63;4.40;;;14.40;99.90;;;;;;7385870;19;20009;-75
2023/11/19 23:13:37;;;;;;;38.85;4.78;;;14.40;99.90;;;;;;7385603;19;20366;-75
2023/11/19 23:16:10;;;;;;;38.25;4.70;;;14.50;99.90;;;;;;7384282;19;20013;-76
2023/11/19 23:18:39;;;;;;;34.35;5.35;;;14.40;99.90;;;;;;7405892;19;20019;-74
2023/11/19 23:21:08;;;;;;;41.42;4.80;;;14.40;99.90;;;;;;7381236;19;20383;-75
2023/11/19 23:23:36;;;;;;;37.60;4.45;;;14.40;99.90;;;;;;7381675;19;20007;-75
2023/11/19 23:26:05;;;;;;;30.60;4.93;;;14.30;99.90;;;;;;7382066;19;20016;-74
2023/11/19 23:28:34;;;;;;;35.13;5.32;;;14.30;99.90;;;;;;7381746;19;20019;-74
2023/11/19 23:31:02;;;;;;;33.28;4.05;;;14.30;99.90;;;;;;7381941;19;20066;-76
2023/11/19 23:33:34;;;;;;;24.98;4.30;;;14.20;99.90;;;;;;7401054;19;20007;-76
2023/11/19 23:36:02;;;;;;;34.90;4.43;;;14.20;99.90;;;;;;7379686;19;20009;-76
2023/11/19 23:38:31;;;;;;;42.13;5.88;;;14.20;99.90;;;;;;7381059;19;20354;-76
2023/11/19 23:41:00;;;;;;;33.60;4.60;;;14.30;99.90;;;;;;7381182;19;20342;-76
2023/11/19 23:43:29;;;;;;;36.17;5.25;;;14.30;99.90;;;;;;7380092;19;20006;-76
2023/11/19 23:45:58;;;;;;;46.95;4.57;;;14.40;99.90;;;;;;7381131;19;20226;-76
2023/11/19 23:48:29;;;;;;;46.08;5.05;;;14.30;99.90;;;;;;7401515;19;20003;-76
2023/11/19 23:51:01;;;;;;;36.83;4.55;;;14.20;99.90;;;;;;7380600;19;20007;-76
2023/11/19 23:53:29;;;;;;;31.45;4.38;;;14.20;99.90;;;;;;7380864;19;20283;-76
2023/11/19 23:55:58;;;;;;;29.92;4.65;;;14.30;99.90;;;;;;7379781;19;20066;-76
2023/11/19 23:58:27;;;;;;;36.38;5.30;;;14.30;99.90;;;;;;7380726;19;20006;-76
